createdAt,value
2022-11-27T00:00:40.431Z,81.60
2022-11-27T00:06:05.300Z,81.40
2022-11-27T00:11:10.090Z,81.50
2022-11-27T00:16:14.262Z,81.60
2022-11-27T00:21:22.437Z,81.60
2022-11-27T00:26:26.804Z,81.50
2022-11-27T00:31:32.681Z,81.40
2022-11-27T00:36:38.423Z,81.50
2022-11-27T00:41:41.833Z,81.80
2022-11-27T00:46:45.322Z,81.80
2022-11-27T00:51:50.374Z,81.70
2022-11-27T00:56:53.949Z,81.60
2022-11-27T01:01:57.480Z,81.50
2022-11-27T01:07:02.476Z,81.50
2022-11-27T01:12:06.758Z,81.40
2022-11-27T01:17:10.124Z,81.60
2022-11-27T01:22:14.955Z,81.50
2022-11-27T01:27:18.325Z,81.40
2022-11-27T01:32:21.708Z,81.30
2022-11-27T01:37:29.067Z,81.30
2022-11-27T01:42:32.433Z,81.30
2022-11-27T01:47:44.210Z,81.30
2022-11-27T01:52:53.811Z,81.30
2022-11-27T01:58:01.866Z,81.40
2022-11-27T02:03:06.090Z,81.40
2022-11-27T02:08:13.488Z,81.50
2022-11-27T02:13:24.325Z,81.50
2022-11-27T02:18:35.575Z,81.40
2022-11-27T02:23:57.580Z,81.40
2022-11-27T02:29:06.624Z,81.40
2022-11-27T02:34:35.172Z,81.40
2022-11-27T02:39:49.675Z,81.30
2022-11-27T02:44:59.973Z,81.30
2022-11-27T02:50:04.671Z,81.20
2022-11-27T02:55:12.424Z,81.20
2022-11-27T03:00:18.570Z,81.30
2022-11-27T03:05:25.306Z,81.40
2022-11-27T03:10:35.092Z,81.50
2022-11-27T03:15:47.468Z,81.40
2022-11-27T03:20:59.783Z,81.40
2022-11-27T03:26:03.229Z,81.40
2022-11-27T03:31:08.216Z,81.50
2022-11-27T03:36:14.660Z,81.60
2022-11-27T03:41:24.715Z,81.50
2022-11-27T03:46:40.936Z,81.60
2022-11-27T03:51:53.570Z,81.40
2022-11-27T03:57:03.120Z,81.40
2022-11-27T04:02:12.591Z,81.40
2022-11-27T04:07:18.415Z,81.40
2022-11-27T04:12:21.825Z,81.30
2022-11-27T04:17:26.603Z,81.20
2022-11-27T04:22:30.042Z,81.30
2022-11-27T04:27:33.811Z,81.40
2022-11-27T04:32:38.823Z,81.30
2022-11-27T04:37:42.207Z,81.20
2022-11-27T04:42:45.893Z,81.10
2022-11-27T04:47:50.758Z,81.30
2022-11-27T04:52:54.104Z,81.50
2022-11-27T04:57:57.504Z,81.40
2022-11-27T05:03:02.509Z,81.40
2022-11-27T05:08:06.194Z,81.40
2022-11-27T05:13:09.835Z,81.40
2022-11-27T05:18:14.599Z,81.40
2022-11-27T05:23:17.991Z,81.40
2022-11-27T05:28:26.392Z,81.40
2022-11-27T05:33:31.706Z,81.40
2022-11-27T05:38:35.059Z,81.40
2022-11-27T05:43:38.431Z,81.30
2022-11-27T05:48:43.548Z,81.40
2022-11-27T05:53:47.092Z,81.30
2022-11-27T05:58:51.630Z,81.40
2022-11-27T06:03:56.484Z,81.30
2022-11-27T06:08:59.876Z,81.60
2022-11-27T06:14:03.274Z,81.90
2022-11-27T06:19:09.069Z,82.20
2022-11-27T06:24:12.480Z,82.10
2022-11-27T06:29:15.888Z,82.10
2022-11-27T06:34:20.753Z,82.10
2022-11-27T06:39:24.282Z,82.10
2022-11-27T06:44:27.788Z,81.80
2022-11-27T06:49:32.606Z,82.10
2022-11-27T06:54:35.990Z,82.10
2022-11-27T06:59:39.392Z,82.40
2022-11-27T07:04:45.056Z,82.40
2022-11-27T07:09:48.546Z,82.30
2022-11-27T07:14:51.921Z,82.60
2022-11-27T07:19:56.640Z,82.70
2022-11-27T07:25:00.139Z,82.90
2022-11-27T07:30:04.239Z,83.10
2022-11-27T07:35:10.053Z,83.20
2022-11-27T07:40:15.046Z,83.30
2022-11-27T07:45:19.082Z,83.10
2022-11-27T07:50:23.886Z,83.10
2022-11-27T07:55:27.379Z,82.80
2022-11-27T08:00:30.852Z,82.80
2022-11-27T08:05:37.234Z,82.70
2022-11-27T08:10:40.915Z,82.60
2022-11-27T08:15:46.116Z,82.60
2022-11-27T08:20:50.835Z,82.60
2022-11-27T08:25:54.237Z,82.50
2022-11-27T08:30:58.734Z,82.50
2022-11-27T08:36:04.232Z,82.50
2022-11-27T08:41:09.432Z,82.70
2022-11-27T08:46:13.426Z,82.60
2022-11-27T08:51:18.443Z,82.50
2022-11-27T08:56:25.072Z,82.50
2022-11-27T09:01:30.818Z,82.50
2022-11-27T09:06:36.668Z,82.50
2022-11-27T09:11:40.421Z,82.60
2022-11-27T09:16:43.897Z,82.60
2022-11-27T09:21:50.924Z,82.50
2022-11-27T09:26:54.429Z,82.40
2022-11-27T09:31:58.138Z,82.30
2022-11-27T09:37:02.916Z,82.30
2022-11-27T09:42:09.763Z,82.20
2022-11-27T09:47:20.777Z,82.20
2022-11-27T09:52:29.674Z,82.20
2022-11-27T09:57:37.424Z,82.20
2022-11-27T10:02:43.209Z,82.20
2022-11-27T10:08:12.103Z,82.20
2022-11-27T10:13:30.239Z,82.20
2022-11-27T10:18:40.271Z,82.20
2022-11-27T10:23:51.879Z,82.20
2022-11-27T10:29:02.065Z,82.20
2022-11-27T10:34:14.940Z,82.20
2022-11-27T10:39:33.386Z,82.20
2022-11-27T10:44:42.978Z,82.00
2022-11-27T10:49:49.173Z,82.10
2022-11-27T10:54:58.275Z,82.00
2022-11-27T11:00:08.063Z,81.90
2022-11-27T11:05:41.044Z,81.90
2022-11-27T11:10:53.062Z,81.80
2022-11-27T11:16:00.142Z,81.60
2022-11-27T11:21:07.126Z,81.50
2022-11-27T11:26:25.315Z,81.40
2022-11-27T11:31:34.619Z,81.20
2022-11-27T11:36:38.084Z,81.30
2022-11-27T11:41:47.330Z,81.10
2022-11-27T11:46:54.562Z,81.10
2022-11-27T11:52:21.128Z,81.10
2022-11-27T11:57:53.281Z,81.10
2022-11-27T12:03:19.442Z,81.10
2022-11-27T12:08:38.163Z,81.10
2022-11-27T12:13:56.318Z,81.00
2022-11-27T12:19:26.715Z,80.90
2022-11-27T12:24:40.652Z,80.90
2022-11-27T12:30:00.135Z,80.70
2022-11-27T12:35:20.270Z,80.70
2022-11-27T12:40:36.513Z,80.50
2022-11-27T12:45:47.282Z,80.50
2022-11-27T12:50:55.083Z,80.30
2022-11-27T12:56:07.860Z,80.20
2022-11-27T13:01:22.476Z,80.20
2022-11-27T13:06:32.515Z,80.20
2022-11-27T13:11:39.276Z,80.20
2022-11-27T13:16:47.549Z,80.10
2022-11-27T13:21:53.467Z,80.10
2022-11-27T13:27:09.752Z,80.00
2022-11-27T13:32:22.688Z,80.10
2022-11-27T13:37:30.518Z,80.10
2022-11-27T13:42:38.026Z,80.00
2022-11-27T13:47:45.182Z,80.00
2022-11-27T13:52:57.233Z,80.00
2022-11-27T13:58:02.824Z,80.10
2022-11-27T14:03:21.880Z,80.10
2022-11-27T14:08:28.014Z,80.00
2022-11-27T14:13:38.574Z,80.00
2022-11-27T14:18:52.114Z,80.00
2022-11-27T14:23:55.566Z,80.00
2022-11-27T14:29:01.491Z,80.10
2022-11-27T14:34:24.677Z,80.10
2022-11-27T14:39:31.428Z,80.00
2022-11-27T14:44:35.930Z,80.00
2022-11-27T14:49:42.196Z,79.90
2022-11-27T14:54:46.175Z,79.90
2022-11-27T14:59:49.587Z,79.80
2022-11-27T15:05:04.378Z,79.70
2022-11-27T15:10:32.553Z,79.90
2022-11-27T15:15:44.105Z,80.00
2022-11-27T15:20:49.858Z,80.00
2022-11-27T15:26:08.316Z,80.10
2022-11-27T15:31:29.687Z,80.20
2022-11-27T15:36:41.006Z,80.20
2022-11-27T15:41:55.939Z,80.30
2022-11-27T15:47:01.874Z,80.30
2022-11-27T15:52:06.742Z,80.30
2022-11-27T15:57:10.167Z,80.10
2022-11-27T16:02:17.733Z,80.10
2022-11-27T16:07:23.360Z,80.00
2022-11-27T16:12:26.853Z,80.90
2022-11-27T16:17:30.262Z,80.90
2022-11-27T16:22:35.061Z,79.80
2022-11-27T16:27:38.760Z,79.80
2022-11-27T16:32:42.147Z,79.90
2022-11-27T16:37:46.980Z,80.00
2022-11-27T16:42:50.377Z,80.00
2022-11-27T16:47:53.780Z,80.10
2022-11-27T16:52:58.670Z,80.00
2022-11-27T16:58:02.124Z,80.00
2022-11-27T17:03:05.586Z,80.00
2022-11-27T17:08:10.356Z,79.90
2022-11-27T17:13:13.966Z,80.00
2022-11-27T17:18:17.402Z,80.00
2022-11-27T17:23:22.566Z,80.00
2022-11-27T17:28:25.992Z,80.00
2022-11-27T17:33:29.482Z,80.00
2022-11-27T17:38:34.240Z,80.00
2022-11-27T17:43:39.179Z,79.90
2022-11-27T17:48:43.200Z,79.80
2022-11-27T17:53:48.633Z,80.70
2022-11-27T17:58:53.191Z,80.70
2022-11-27T18:03:59.928Z,79.60
2022-11-27T18:09:05.514Z,79.60
2022-11-27T18:14:09.372Z,79.50
2022-11-27T18:19:13.345Z,79.50
2022-11-27T18:24:23.578Z,80.60
2022-11-27T18:29:27.708Z,79.60
2022-11-27T18:34:31.270Z,79.50
2022-11-27T18:39:38.678Z,79.70
2022-11-27T18:44:45.134Z,79.60
2022-11-27T18:49:49.240Z,79.60
2022-11-27T18:54:54.090Z,79.50
2022-11-27T18:59:57.623Z,79.40
2022-11-27T19:05:01.125Z,79.30
2022-11-27T19:10:06.914Z,79.40
2022-11-27T19:15:11.314Z,79.40
2022-11-27T19:20:14.928Z,79.50
2022-11-27T19:25:20.000Z,79.50
2022-11-27T19:30:23.603Z,79.60
2022-11-27T19:35:27.033Z,79.40
2022-11-27T19:40:33.232Z,79.40
2022-11-27T19:45:37.930Z,80.40
2022-11-27T19:50:41.367Z,79.30
2022-11-27T19:55:53.043Z,79.10
2022-11-27T20:00:56.790Z,79.30
2022-11-27T20:06:05.556Z,79.30
2022-11-27T20:11:12.614Z,79.20
2022-11-27T20:16:17.890Z,79.30
2022-11-27T20:21:23.736Z,79.40
2022-11-27T20:26:30.975Z,79.40
2022-11-27T20:31:36.459Z,79.30
2022-11-27T20:36:41.173Z,79.30
2022-11-27T20:41:46.014Z,79.30
2022-11-27T20:46:49.657Z,79.20
2022-11-27T20:51:53.538Z,79.20
2022-11-27T20:56:58.359Z,79.20
2022-11-27T21:02:02.788Z,79.20
2022-11-27T21:07:06.488Z,79.10
2022-11-27T21:12:13.206Z,79.20
2022-11-27T21:17:16.683Z,79.20
2022-11-27T21:22:20.310Z,79.10
2022-11-27T21:27:25.675Z,79.00
2022-11-27T21:32:30.395Z,79.10
2022-11-27T21:37:33.763Z,79.10
2022-11-27T21:42:44.194Z,79.10
2022-11-27T21:47:47.964Z,78.80
2022-11-27T21:52:53.575Z,78.70
2022-11-27T21:57:59.460Z,78.90
2022-11-27T22:03:02.933Z,79.20
2022-11-27T22:08:06.631Z,79.40
2022-11-27T22:13:11.372Z,79.70
2022-11-27T22:18:15.005Z,79.80
2022-11-27T22:23:18.453Z,79.60
2022-11-27T22:28:23.546Z,79.80
2022-11-27T22:33:26.963Z,79.80
2022-11-27T22:38:30.357Z,79.80
2022-11-27T22:43:36.441Z,79.60
2022-11-27T22:48:39.836Z,79.70
2022-11-27T22:53:43.298Z,79.80
2022-11-27T22:58:48.315Z,79.70
2022-11-27T23:03:52.226Z,79.70
2022-11-27T23:08:56.015Z,79.90
2022-11-27T23:14:00.932Z,80.00
2022-11-27T23:19:04.325Z,80.00
2022-11-27T23:24:09.662Z,79.80
2022-11-27T23:29:15.084Z,79.70
2022-11-27T23:34:18.459Z,79.40
2022-11-27T23:39:21.909Z,79.20
2022-11-27T23:44:26.625Z,79.20
2022-11-27T23:49:30.184Z,79.20
2022-11-27T23:54:33.647Z,78.80
2022-11-27T23:59:38.802Z,78.70
